createdAt,value
2019-02-25T00:00:56.583Z,14.17
2019-02-25T00:05:52.440Z,8.53
2019-02-25T00:10:51.526Z,7.23
2019-02-25T00:15:47.914Z,7.27
2019-02-25T00:20:45.630Z,6.17
2019-02-25T00:25:43.564Z,6.63
2019-02-25T00:30:39.368Z,7.50
2019-02-25T00:35:35.155Z,7.73
2019-02-25T00:40:32.679Z,7.37
2019-02-25T00:45:28.535Z,5.33
2019-02-25T00:50:24.529Z,7.77
2019-02-25T00:55:29.677Z,9.13
2019-02-25T01:00:26.993Z,5.93
2019-02-25T01:05:22.795Z,5.40
2019-02-25T01:10:19.149Z,5.87
2019-02-25T01:15:15.738Z,4.67
2019-02-25T01:20:11.839Z,6.33
2019-02-25T01:25:09.812Z,6.40
2019-02-25T01:30:07.455Z,7.47
2019-02-25T01:35:03.388Z,5.90
2019-02-25T01:39:59.438Z,8.80
2019-02-25T01:44:55.316Z,5.13
2019-02-25T01:49:51.133Z,5.67
2019-02-25T01:54:46.941Z,5.97
2019-02-25T01:59:42.709Z,5.47
2019-02-25T02:04:38.653Z,7.77
2019-02-25T02:09:34.469Z,4.20
2019-02-25T02:14:30.321Z,6.30
2019-02-25T02:19:26.268Z,6.30
2019-02-25T02:24:22.181Z,6.60
2019-02-25T02:29:18.430Z,5.57
2019-02-25T02:34:14.322Z,6.90
2019-02-25T02:39:10.343Z,7.73
2019-02-25T02:44:06.173Z,6.50
2019-02-25T02:49:05.190Z,6.33
2019-02-25T02:54:01.209Z,5.00
2019-02-25T02:58:57.086Z,7.33
2019-02-25T03:03:52.976Z,5.90
2019-02-25T03:08:48.798Z,5.37
2019-02-25T03:13:44.677Z,9.23
2019-02-25T03:18:40.707Z,5.80
2019-02-25T03:23:36.756Z,5.83
2019-02-25T03:28:32.761Z,6.63
2019-02-25T03:33:28.653Z,6.17
2019-02-25T03:38:24.556Z,5.47
2019-02-25T03:43:20.378Z,7.67
2019-02-25T03:48:16.276Z,6.03
2019-02-25T03:53:12.145Z,6.27
2019-02-25T03:58:07.994Z,5.83
2019-02-25T04:03:03.944Z,7.07
2019-02-25T04:07:59.805Z,7.33
2019-02-25T04:12:55.761Z,6.17
2019-02-25T04:17:51.566Z,6.27
2019-02-25T04:22:47.434Z,6.30
2019-02-25T04:27:43.475Z,6.90
2019-02-25T04:32:39.293Z,5.27
2019-02-25T04:37:35.208Z,5.77
2019-02-25T04:42:31.001Z,6.90
2019-02-25T04:47:26.970Z,5.53
2019-02-25T04:52:22.876Z,8.17
2019-02-25T04:57:18.815Z,6.33
2019-02-25T05:14:47.713Z,6.00
2019-02-25T05:19:43.625Z,6.07
2019-02-25T05:24:39.455Z,7.43
2019-02-25T05:29:35.317Z,8.40
2019-02-25T05:34:31.286Z,5.43
2019-02-25T05:39:27.105Z,6.77
2019-02-25T05:44:22.995Z,8.40
2019-02-25T05:49:18.835Z,6.97
2019-02-25T05:54:14.663Z,7.03
2019-02-25T05:59:10.513Z,8.93
2019-02-25T06:04:06.304Z,7.10
2019-02-25T06:09:02.182Z,8.53
2019-02-25T06:13:57.991Z,9.93
2019-02-25T06:18:53.991Z,19.30
2019-02-25T06:23:49.787Z,36.37
2019-02-25T06:28:47.099Z,38.40
2019-02-25T06:33:43.201Z,28.13
2019-02-25T06:38:39.081Z,15.77
2019-02-25T06:43:34.977Z,13.30
2019-02-25T06:48:30.805Z,13.40
2019-02-25T06:53:27.635Z,9.07
2019-02-25T06:58:23.732Z,7.30
2019-02-25T07:03:19.613Z,8.80
2019-02-25T07:08:34.271Z,7.67
2019-02-25T07:13:36.382Z,8.97
2019-02-25T07:18:49.129Z,9.63
2019-02-25T07:24:21.778Z,9.17
2019-02-25T07:29:39.599Z,8.33
2019-02-25T07:34:52.955Z,8.63
2019-02-25T07:40:05.925Z,14.63
2019-02-25T07:45:26.391Z,9.83
2019-02-25T07:50:47.139Z,9.83
2019-02-25T07:56:02.370Z,14.87
2019-02-25T08:01:03.473Z,18.90
2019-02-25T08:06:26.786Z,12.20
2019-02-25T08:11:34.973Z,11.27
2019-02-25T08:16:46.391Z,9.27
2019-02-25T08:22:06.915Z,7.93
2019-02-25T08:27:14.569Z,10.00
2019-02-25T08:32:41.313Z,9.77
2019-02-25T08:38:01.892Z,11.23
2019-02-25T08:43:02.804Z,7.63
2019-02-25T08:48:11.514Z,6.17
2019-02-25T08:53:07.275Z,6.20
2019-02-25T08:58:03.179Z,5.87
2019-02-25T09:02:58.898Z,9.07
2019-02-25T09:07:54.712Z,9.77
2019-02-25T09:12:50.470Z,5.37
2019-02-25T09:17:44.399Z,6.93
2019-02-25T09:22:40.230Z,8.03
2019-02-25T09:27:36.066Z,9.60
2019-02-25T09:32:31.799Z,11.23
2019-02-25T09:37:27.688Z,12.07
2019-02-25T09:42:23.455Z,12.40
2019-02-25T09:47:19.196Z,8.30
2019-02-25T09:52:14.987Z,8.30
2019-02-25T09:57:10.989Z,9.90
2019-02-25T10:02:06.784Z,10.90
2019-02-25T10:07:02.743Z,8.80
2019-02-25T10:11:58.568Z,8.13
2019-02-25T10:16:54.316Z,9.80
2019-02-25T10:21:50.234Z,14.40
2019-02-25T10:26:46.101Z,8.97
2019-02-25T10:31:43.716Z,8.13
2019-02-25T10:36:39.352Z,10.83
2019-02-25T10:41:35.115Z,6.60
2019-02-25T10:46:30.917Z,9.67
2019-02-25T10:51:26.760Z,7.80
2019-02-25T10:56:51.488Z,10.90
2019-02-25T11:01:47.524Z,10.60
2019-02-25T11:06:43.391Z,14.70
2019-02-25T11:11:41.339Z,10.43
2019-02-25T11:16:37.140Z,9.30
2019-02-25T11:21:35.181Z,8.20
2019-02-25T11:26:31.131Z,9.87
2019-02-25T11:31:29.135Z,8.10
2019-02-25T11:36:25.092Z,9.93
2019-02-25T11:41:20.913Z,7.00
2019-02-25T11:46:16.841Z,9.47
2019-02-25T11:51:12.657Z,12.43
2019-02-25T11:56:08.531Z,8.17
2019-02-25T12:01:04.760Z,10.43
2019-02-25T12:06:02.981Z,10.77
2019-02-25T12:10:58.815Z,8.10
2019-02-25T12:15:54.541Z,10.03
2019-02-25T12:20:50.386Z,12.27
2019-02-25T12:25:46.181Z,7.80
2019-02-25T12:30:42.198Z,11.03
2019-02-25T12:35:37.989Z,10.07
2019-02-25T12:40:33.789Z,10.87
2019-02-25T12:45:29.636Z,9.20
2019-02-25T12:50:25.638Z,9.73
2019-02-25T12:55:21.418Z,8.23
2019-02-25T13:00:17.519Z,15.10
2019-02-25T13:05:15.655Z,9.30
2019-02-25T13:10:13.578Z,9.27
2019-02-25T13:15:13.861Z,9.47
2019-02-25T13:20:10.116Z,7.90
2019-02-25T13:25:08.069Z,13.07
2019-02-25T13:30:05.963Z,15.00
2019-02-25T13:35:01.767Z,6.90
2019-02-25T13:39:57.591Z,11.60
2019-02-25T13:44:53.515Z,8.20
2019-02-25T13:49:49.425Z,8.17
2019-02-25T13:54:45.388Z,7.83
2019-02-25T13:59:41.149Z,6.70
2019-02-25T14:04:37.286Z,6.63
2019-02-25T14:09:33.299Z,6.97
2019-02-25T14:14:29.505Z,7.17
2019-02-25T14:19:25.352Z,5.50
2019-02-25T14:24:21.223Z,8.30
2019-02-25T14:29:17.516Z,8.73
2019-02-25T14:34:13.583Z,8.90
2019-02-25T14:39:24.813Z,7.50
2019-02-25T14:44:19.514Z,6.00
2019-02-25T14:49:17.222Z,6.87
2019-02-25T14:54:17.994Z,8.90
2019-02-25T14:59:15.609Z,9.43
2019-02-25T15:04:14.013Z,6.20
2019-02-25T15:09:14.185Z,8.37
2019-02-25T15:14:12.867Z,7.97
2019-02-25T15:19:09.876Z,11.50
2019-02-25T15:24:06.880Z,8.57
2019-02-25T15:29:09.262Z,9.00
2019-02-25T15:34:06.036Z,7.20
2019-02-25T15:39:07.384Z,7.07
2019-02-25T15:44:08.889Z,7.53
2019-02-25T15:49:04.738Z,7.40
2019-02-25T15:54:01.040Z,6.40
2019-02-25T15:58:58.317Z,8.63
2019-02-25T16:03:56.506Z,5.40
2019-02-25T16:09:03.039Z,5.50
2019-02-25T16:14:02.966Z,8.20
2019-02-25T16:19:05.638Z,8.20
2019-02-25T16:24:04.832Z,6.77
2019-02-25T16:29:03.988Z,5.57
2019-02-25T16:33:57.719Z,6.50
2019-02-25T16:38:55.796Z,8.33
2019-02-25T16:43:51.112Z,6.70
2019-02-25T16:48:48.398Z,10.07
2019-02-25T16:53:52.220Z,10.23
2019-02-25T16:58:48.201Z,11.53
2019-02-25T17:03:46.393Z,7.27
2019-02-25T17:08:44.323Z,8.73
2019-02-25T17:13:44.136Z,6.33
2019-02-25T17:18:40.051Z,7.57
2019-02-25T17:23:48.716Z,9.90
2019-02-25T17:28:52.580Z,8.77
2019-02-25T17:33:56.172Z,7.87
2019-02-25T17:38:54.834Z,6.33
2019-02-25T17:43:54.953Z,6.67
2019-02-25T17:48:52.878Z,7.27
2019-02-25T17:53:50.475Z,12.17
2019-02-25T17:58:47.460Z,10.00
2019-02-25T18:03:46.082Z,11.70
2019-02-25T18:08:42.639Z,10.40
2019-02-25T18:13:38.947Z,9.60
2019-02-25T18:18:36.619Z,8.23
2019-02-25T18:23:34.440Z,12.40
2019-02-25T18:28:30.201Z,9.67
2019-02-25T18:33:27.391Z,8.77
2019-02-25T18:38:25.339Z,12.23
2019-02-25T18:43:22.074Z,9.67
2019-02-25T18:48:21.195Z,7.83
2019-02-25T18:53:23.406Z,8.83
2019-02-25T18:58:20.897Z,11.80
2019-02-25T19:03:16.713Z,10.90
2019-02-25T19:08:22.938Z,10.83
2019-02-25T19:13:20.989Z,11.83
2019-02-25T19:18:18.072Z,8.47
2019-02-25T19:23:14.754Z,9.77
2019-02-25T19:28:16.592Z,10.57
2019-02-25T19:33:11.463Z,9.13
2019-02-25T19:38:08.322Z,9.13
2019-02-25T19:43:06.364Z,8.80
2019-02-25T19:48:05.221Z,10.63
2019-02-25T19:53:04.619Z,11.93
2019-02-25T19:57:58.687Z,10.67
2019-02-25T20:03:04.831Z,8.73
2019-02-25T20:07:54.683Z,9.93
2019-02-25T20:12:52.577Z,9.70
2019-02-25T20:17:48.850Z,8.67
2019-02-25T20:22:45.567Z,8.83
2019-02-25T20:27:41.407Z,8.33
2019-02-25T20:32:38.646Z,11.33
2019-02-25T20:37:34.804Z,10.47
2019-02-25T20:42:32.654Z,8.63
2019-02-25T20:47:28.695Z,9.03
2019-02-25T20:52:24.614Z,9.13
2019-02-25T20:57:20.499Z,9.03
2019-02-25T21:02:18.621Z,8.07
2019-02-25T21:07:14.611Z,11.27
2019-02-25T21:12:12.719Z,9.17
2019-02-25T21:17:08.136Z,9.00
2019-02-25T21:22:04.873Z,11.17
2019-02-25T21:27:10.458Z,8.43
2019-02-25T21:32:12.760Z,7.47
2019-02-25T21:37:06.212Z,9.83
2019-02-25T21:42:08.810Z,13.03
2019-02-25T21:47:06.162Z,9.87
